FMNN Airport Information

Runway Information
Runway 05 Length 7185 ft width 148 ft
Elevation 37 ft Threshold 0 ft Heading 43
Runway 23 Length 7185 ft Width 148 ft
Elevation 16 ft Threshold 0 ft Heading 223
Airport Frequencies
Type A/G Name A/G VOICE Frequency 548.4 MHZ
Type TWR Name TWR Frequency 118.7 MHZ
Airport Navaids
Type VOR-DME Name Fascene Frequency 117500 KHZ
Type NDB Name Fascene Frequency 381 KHZ
Airport Weather Information & NOTAM
ADDS - METARS form results

(0819 UTC 20 May 2022)
Data provider http://aviationweather.gov/metar/data/
 
METAR text: FMNN 200800Z 03004KT 9999 FEW020 30/// Q1015
Conditions at: FMNN (NOSY BE/FASCENE , MG) observed 0800 UTC 20 May 2022
Temperature: missing
Dewpoint: missing
Pressure (altimeter): 29.97 inches Hg (1015.0 mb)
Winds: from the NNE (30 degrees) at 5 MPH (4 knots; 2.1 m/s)
Visibility: 6 or more miles (10+ km)
Ceiling: at least 12,000 feet AGL
Clouds: few clouds at 2000 feet AGL
Weather: no significant weather observed at this time

Forecast for: FMNN (NOSY BE/FASCENE , MG)
Text: TAF FMNN 200500Z 2006/2106 VRB04KT 9999 SCT020
Forecast period: 0600 UTC 20 May 2022 to 0600 UTC 21 May 2022
Forecast type: FROM: standard forecast or significant change
Winds: variable direction winds at 5 MPH (4 knots; 2.1 m/s)
Visibility: 6 or more miles (10+ km)
Ceiling: at least 12,000 feet AGL
Clouds: scattered clouds at 2000 feet AGL
Weather: no significant weather forecast for this period